sensor_id;sensor_type;location;lat;lon;timestamp;pressure;altitude;pressure_sealevel;temperature;humidity
55990;BME280;41875;55.806;38.082;2022-11-15T00:02:40;99972.69;;;1.26;40.23
55990;BME280;41875;55.806;38.082;2022-11-15T00:05:27;99971.19;;;1.21;40.42
55990;BME280;41875;55.806;38.082;2022-11-15T00:08:14;99967.19;;;0.52;41.54
55990;BME280;41875;55.806;38.082;2022-11-15T00:11:03;99971.91;;;0.45;41.73
55990;BME280;41875;55.806;38.082;2022-11-15T00:13:50;99964.81;;;0.95;41.38
55990;BME280;41875;55.806;38.082;2022-11-15T00:16:37;99966.19;;;1.02;40.83
55990;BME280;41875;55.806;38.082;2022-11-15T00:19:25;99971.38;;;1.49;40.18
55990;BME280;41875;55.806;38.082;2022-11-15T00:22:12;99967.50;;;1.10;40.89
55990;BME280;41875;55.806;38.082;2022-11-15T00:24:59;99956.53;;;0.72;41.44
55990;BME280;41875;55.806;38.082;2022-11-15T00:27:46;99957.91;;;0.94;40.92
55990;BME280;41875;55.806;38.082;2022-11-15T00:30:33;99954.59;;;1.23;40.60
55990;BME280;41875;55.806;38.082;2022-11-15T00:33:21;99963.94;;;1.72;40.11
55990;BME280;41875;55.806;38.082;2022-11-15T00:36:10;99965.44;;;1.76;39.92
55990;BME280;41875;55.806;38.082;2022-11-15T00:38:57;99953.22;;;2.05;39.37
55990;BME280;41875;55.806;38.082;2022-11-15T00:41:44;99954.06;;;1.91;39.59
55990;BME280;41875;55.806;38.082;2022-11-15T00:44:32;99952.41;;;1.90;38.88
55990;BME280;41875;55.806;38.082;2022-11-15T00:47:19;99940.63;;;2.12;38.93
55990;BME280;41875;55.806;38.082;2022-11-15T00:50:06;99938.50;;;2.19;38.99
55990;BME280;41875;55.806;38.082;2022-11-15T00:53:00;99936.53;;;2.08;38.95
55990;BME280;41875;55.806;38.082;2022-11-15T00:55:48;99937.19;;;2.11;38.62
55990;BME280;41875;55.806;38.082;2022-11-15T00:58:35;99940.25;;;2.04;39.14
55990;BME280;41875;55.806;38.082;2022-11-15T01:01:22;99929.22;;;2.13;38.89
55990;BME280;41875;55.806;38.082;2022-11-15T01:04:09;99920.56;;;1.98;39.61
55990;BME280;41875;55.806;38.082;2022-11-15T01:06:57;99925.97;;;1.66;41.08
55990;BME280;41875;55.806;38.082;2022-11-15T01:09:45;99919.19;;;1.78;40.32
55990;BME280;41875;55.806;38.082;2022-11-15T01:12:32;99917.09;;;2.41;39.32
55990;BME280;41875;55.806;38.082;2022-11-15T01:15:21;99915.56;;;1.21;41.46
55990;BME280;41875;55.806;38.082;2022-11-15T01:18:08;99915.84;;;1.00;41.47
55990;BME280;41875;55.806;38.082;2022-11-15T01:20:55;99918.69;;;1.12;41.42
55990;BME280;41875;55.806;38.082;2022-11-15T01:23:43;99918.84;;;1.09;42.08
55990;BME280;41875;55.806;38.082;2022-11-15T01:26:32;99920.81;;;1.35;41.52
55990;BME280;41875;55.806;38.082;2022-11-15T01:29:19;99910.41;;;0.89;42.27
55990;BME280;41875;55.806;38.082;2022-11-15T01:32:06;99907.59;;;1.08;42.42
55990;BME280;41875;55.806;38.082;2022-11-15T01:34:53;99915.44;;;1.23;41.86
55990;BME280;41875;55.806;38.082;2022-11-15T01:37:43;99908.34;;;0.94;42.42
55990;BME280;41875;55.806;38.082;2022-11-15T01:40:30;99898.88;;;1.38;40.25
55990;BME280;41875;55.806;38.082;2022-11-15T01:43:23;99893.41;;;1.43;41.29
55990;BME280;41875;55.806;38.082;2022-11-15T01:46:22;99890.50;;;1.47;41.63
55990;BME280;41875;55.806;38.082;2022-11-15T01:49:14;99889.22;;;1.83;40.70
55990;BME280;41875;55.806;38.082;2022-11-15T01:52:05;99895.22;;;1.86;40.12
55990;BME280;41875;55.806;38.082;2022-11-15T01:54:58;99889.06;;;1.87;40.96
55990;BME280;41875;55.806;38.082;2022-11-15T01:57:47;99886.88;;;2.08;40.21
55990;BME280;41875;55.806;38.082;2022-11-15T02:00:38;99893.22;;;1.60;40.78
55990;BME280;41875;55.806;38.082;2022-11-15T02:03:36;99886.16;;;1.62;40.85
55990;BME280;41875;55.806;38.082;2022-11-15T02:06:26;99893.66;;;1.24;41.59
55990;BME280;41875;55.806;38.082;2022-11-15T02:09:14;99892.53;;;0.67;43.19
55990;BME280;41875;55.806;38.082;2022-11-15T02:12:02;99884.25;;;1.35;41.85
55990;BME280;41875;55.806;38.082;2022-11-15T02:14:51;99880.66;;;1.22;42.27
55990;BME280;41875;55.806;38.082;2022-11-15T02:17:53;99888.16;;;1.28;42.46
55990;BME280;41875;55.806;38.082;2022-11-15T02:20:54;99885.81;;;1.24;42.26
55990;BME280;41875;55.806;38.082;2022-11-15T02:30:37;99879.88;;;1.36;41.86
55990;BME280;41875;55.806;38.082;2022-11-15T02:33:35;99883.75;;;0.84;42.74
55990;BME280;41875;55.806;38.082;2022-11-15T02:36:35;99878.03;;;0.77;43.07
55990;BME280;41875;55.806;38.082;2022-11-15T02:39:29;99878.31;;;1.03;42.96
55990;BME280;41875;55.806;38.082;2022-11-15T02:42:25;99885.19;;;1.04;43.18
55990;BME280;41875;55.806;38.082;2022-11-15T02:45:36;99893.41;;;0.98;42.82
55990;BME280;41875;55.806;38.082;2022-11-15T02:48:25;99880.72;;;1.06;42.81
55990;BME280;41875;55.806;38.082;2022-11-15T02:51:13;99887.34;;;1.42;42.39
55990;BME280;41875;55.806;38.082;2022-11-15T02:54:00;99879.59;;;1.55;41.64
55990;BME280;41875;55.806;38.082;2022-11-15T02:56:48;99865.59;;;1.27;42.41
55990;BME280;41875;55.806;38.082;2022-11-15T03:00:04;99857.41;;;1.33;42.77
55990;BME280;41875;55.806;38.082;2022-11-15T03:03:05;99855.16;;;1.27;42.62
55990;BME280;41875;55.806;38.082;2022-11-15T03:06:13;99866.25;;;1.45;41.88
55990;BME280;41875;55.806;38.082;2022-11-15T03:09:10;99855.34;;;1.39;42.51
55990;BME280;41875;55.806;38.082;2022-11-15T03:12:03;99851.97;;;1.36;42.24
55990;BME280;41875;55.806;38.082;2022-11-15T03:14:56;99846.72;;;1.08;42.17
55990;BME280;41875;55.806;38.082;2022-11-15T03:17:50;99846.69;;;0.93;42.44
55990;BME280;41875;55.806;38.082;2022-11-15T03:20:40;99845.59;;;0.97;42.96
55990;BME280;41875;55.806;38.082;2022-11-15T03:23:30;99845.09;;;1.21;41.87
55990;BME280;41875;55.806;38.082;2022-11-15T03:26:20;99854.00;;;1.02;41.98
55990;BME280;41875;55.806;38.082;2022-11-15T03:29:11;99842.84;;;1.15;42.11
55990;BME280;41875;55.806;38.082;2022-11-15T03:32:03;99843.56;;;1.02;42.55
55990;BME280;41875;55.806;38.082;2022-11-15T03:34:55;99837.16;;;1.23;42.31
55990;BME280;41875;55.806;38.082;2022-11-15T03:37:53;99843.41;;;1.20;42.25
55990;BME280;41875;55.806;38.082;2022-11-15T03:40:42;99843.44;;;1.34;41.94
55990;BME280;41875;55.806;38.082;2022-11-15T03:43:38;99853.47;;;1.26;42.10
55990;BME280;41875;55.806;38.082;2022-11-15T03:46:31;99855.22;;;1.11;42.19
55990;BME280;41875;55.806;38.082;2022-11-15T03:49:27;99858.84;;;1.09;42.98
55990;BME280;41875;55.806;38.082;2022-11-15T03:52:17;99855.88;;;1.15;42.55
55990;BME280;41875;55.806;38.082;2022-11-15T03:55:10;99866.41;;;1.13;42.50
55990;BME280;41875;55.806;38.082;2022-11-15T03:57:59;99856.53;;;1.18;42.60
55990;BME280;41875;55.806;38.082;2022-11-15T04:00:49;99852.03;;;1.51;42.21
55990;BME280;41875;55.806;38.082;2022-11-15T04:03:36;99849.97;;;0.97;42.77
55990;BME280;41875;55.806;38.082;2022-11-15T04:06:23;99850.91;;;0.96;43.26
55990;BME280;41875;55.806;38.082;2022-11-15T04:09:11;99846.19;;;0.86;43.63
55990;BME280;41875;55.806;38.082;2022-11-15T04:11:59;99845.28;;;0.87;43.56
55990;BME280;41875;55.806;38.082;2022-11-15T04:14:46;99842.84;;;1.29;43.08
55990;BME280;41875;55.806;38.082;2022-11-15T04:17:56;99842.81;;;1.00;43.38
55990;BME280;41875;55.806;38.082;2022-11-15T04:20:43;99847.00;;;0.72;43.77
55990;BME280;41875;55.806;38.082;2022-11-15T04:23:50;99841.59;;;1.06;42.78
55990;BME280;41875;55.806;38.082;2022-11-15T04:26:55;99845.13;;;1.05;42.96
55990;BME280;41875;55.806;38.082;2022-11-15T04:29:43;99837.41;;;1.03;43.19
55990;BME280;41875;55.806;38.082;2022-11-15T04:32:31;99828.13;;;0.53;43.37
55990;BME280;41875;55.806;38.082;2022-11-15T04:35:18;99824.97;;;0.32;43.80
55990;BME280;41875;55.806;38.082;2022-11-15T04:38:07;99822.91;;;0.53;43.09
55990;BME280;41875;55.806;38.082;2022-11-15T04:40:54;99828.22;;;0.51;42.52
55990;BME280;41875;55.806;38.082;2022-11-15T04:43:41;99827.72;;;0.75;42.72
55990;BME280;41875;55.806;38.082;2022-11-15T04:46:30;99828.81;;;0.71;42.56
55990;BME280;41875;55.806;38.082;2022-11-15T04:49:20;99819.50;;;0.97;42.33
55990;BME280;41875;55.806;38.082;2022-11-15T04:52:10;99820.22;;;0.85;42.17
55990;BME280;41875;55.806;38.082;2022-11-15T04:55:01;99822.66;;;0.88;42.53
55990;BME280;41875;55.806;38.082;2022-11-15T04:58:02;99814.75;;;0.59;43.02
55990;BME280;41875;55.806;38.082;2022-11-15T05:00:49;99806.81;;;0.30;43.46
55990;BME280;41875;55.806;38.082;2022-11-15T05:03:37;99818.50;;;0.69;43.31
55990;BME280;41875;55.806;38.082;2022-11-15T05:06:42;99812.59;;;0.96;42.32
55990;BME280;41875;55.806;38.082;2022-11-15T05:09:29;99823.13;;;0.95;42.47
55990;BME280;41875;55.806;38.082;2022-11-15T05:12:16;99815.13;;;0.98;42.37
55990;BME280;41875;55.806;38.082;2022-11-15T05:15:05;99816.69;;;0.86;42.78
55990;BME280;41875;55.806;38.082;2022-11-15T05:17:57;99811.25;;;0.74;42.97
55990;BME280;41875;55.806;38.082;2022-11-15T05:20:46;99802.84;;;1.14;42.30
55990;BME280;41875;55.806;38.082;2022-11-15T05:23:33;99802.00;;;0.99;42.81
55990;BME280;41875;55.806;38.082;2022-11-15T05:26:20;99795.78;;;1.31;42.13
55990;BME280;41875;55.806;38.082;2022-11-15T05:29:09;99803.03;;;1.11;41.96
55990;BME280;41875;55.806;38.082;2022-11-15T05:31:57;99802.47;;;1.06;42.40
55990;BME280;41875;55.806;38.082;2022-11-15T05:34:46;99803.50;;;1.18;42.12
55990;BME280;41875;55.806;38.082;2022-11-15T05:37:35;99789.53;;;1.04;42.50
55990;BME280;41875;55.806;38.082;2022-11-15T05:40:22;99788.59;;;1.20;42.41
55990;BME280;41875;55.806;38.082;2022-11-15T05:43:10;99787.69;;;1.35;42.37
55990;BME280;41875;55.806;38.082;2022-11-15T05:45:58;99790.47;;;1.18;42.35
55990;BME280;41875;55.806;38.082;2022-11-15T05:48:48;99791.16;;;0.91;43.11
55990;BME280;41875;55.806;38.082;2022-11-15T05:51:37;99788.22;;;1.41;42.03
55990;BME280;41875;55.806;38.082;2022-11-15T05:54:26;99780.97;;;1.46;42.39
55990;BME280;41875;55.806;38.082;2022-11-15T05:57:13;99779.00;;;1.20;42.51
55990;BME280;41875;55.806;38.082;2022-11-15T06:00:01;99785.06;;;1.21;42.41
55990;BME280;41875;55.806;38.082;2022-11-15T06:02:48;99785.16;;;1.48;42.10
55990;BME280;41875;55.806;38.082;2022-11-15T06:05:35;99785.25;;;1.61;42.14
55990;BME280;41875;55.806;38.082;2022-11-15T06:08:22;99779.13;;;1.75;41.63
55990;BME280;41875;55.806;38.082;2022-11-15T06:11:11;99777.94;;;1.81;41.25
55990;BME280;41875;55.806;38.082;2022-11-15T06:14:01;99772.94;;;1.63;41.54
55990;BME280;41875;55.806;38.082;2022-11-15T06:16:48;99779.63;;;1.67;41.66
55990;BME280;41875;55.806;38.082;2022-11-15T06:19:35;99779.66;;;1.39;42.50
55990;BME280;41875;55.806;38.082;2022-11-15T06:22:24;99780.09;;;1.16;43.07
55990;BME280;41875;55.806;38.082;2022-11-15T06:25:11;99769.81;;;1.86;41.39
55990;BME280;41875;55.806;38.082;2022-11-15T06:27:59;99776.97;;;1.96;41.68
55990;BME280;41875;55.806;38.082;2022-11-15T06:30:46;99772.38;;;2.27;40.98
55990;BME280;41875;55.806;38.082;2022-11-15T06:33:38;99757.00;;;1.39;42.78
55990;BME280;41875;55.806;38.082;2022-11-15T06:36:25;99753.94;;;1.47;42.46
55990;BME280;41875;55.806;38.082;2022-11-15T06:39:12;99755.00;;;1.72;41.70
55990;BME280;41875;55.806;38.082;2022-11-15T06:42:00;99750.94;;;1.95;41.49
55990;BME280;41875;55.806;38.082;2022-11-15T06:44:48;99762.28;;;1.81;41.75
55990;BME280;41875;55.806;38.082;2022-11-15T06:47:35;99751.16;;;1.77;41.74
55990;BME280;41875;55.806;38.082;2022-11-15T06:50:30;99757.78;;;1.68;41.90
55990;BME280;41875;55.806;38.082;2022-11-15T06:53:17;99755.03;;;1.28;42.93
55990;BME280;41875;55.806;38.082;2022-11-15T06:56:06;99759.97;;;1.04;43.64
55990;BME280;41875;55.806;38.082;2022-11-15T06:58:55;99750.66;;;1.58;42.56
55990;BME280;41875;55.806;38.082;2022-11-15T07:01:43;99751.38;;;1.60;42.20
55990;BME280;41875;55.806;38.082;2022-11-15T07:04:30;99750.13;;;2.07;41.71
55990;BME280;41875;55.806;38.082;2022-11-15T07:07:17;99756.13;;;1.67;41.75
55990;BME280;41875;55.806;38.082;2022-11-15T07:10:07;99737.00;;;1.67;41.65
55990;BME280;41875;55.806;38.082;2022-11-15T07:12:55;99737.00;;;1.67;41.99
55990;BME280;41875;55.806;38.082;2022-11-15T07:15:43;99730.13;;;1.51;42.21
55990;BME280;41875;55.806;38.082;2022-11-15T07:18:33;99728.47;;;1.07;42.79
55990;BME280;41875;55.806;38.082;2022-11-15T07:21:21;99719.53;;;1.26;42.64
55990;BME280;41875;55.806;38.082;2022-11-15T07:24:12;99728.31;;;1.66;42.39
55990;BME280;41875;55.806;38.082;2022-11-15T07:26:59;99724.53;;;1.58;41.75
55990;BME280;41875;55.806;38.082;2022-11-15T07:29:46;99715.84;;;1.99;41.14
55990;BME280;41875;55.806;38.082;2022-11-15T07:32:34;99724.13;;;2.06;41.47
55990;BME280;41875;55.806;38.082;2022-11-15T07:35:23;99721.59;;;1.77;41.86
55990;BME280;41875;55.806;38.082;2022-11-15T07:38:10;99715.47;;;1.63;42.08
55990;BME280;41875;55.806;38.082;2022-11-15T07:40:59;99717.50;;;1.73;42.38
55990;BME280;41875;55.806;38.082;2022-11-15T07:43:46;99718.53;;;2.25;41.04
55990;BME280;41875;55.806;38.082;2022-11-15T07:46:33;99712.44;;;1.84;41.24
55990;BME280;41875;55.806;38.082;2022-11-15T07:49:20;99714.28;;;2.37;40.73
55990;BME280;41875;55.806;38.082;2022-11-15T07:52:09;99707.53;;;2.86;39.61
55990;BME280;41875;55.806;38.082;2022-11-15T07:54:56;99705.84;;;2.98;39.61
55990;BME280;41875;55.806;38.082;2022-11-15T07:57:43;99705.81;;;2.46;40.30
55990;BME280;41875;55.806;38.082;2022-11-15T08:00:30;99708.53;;;2.57;40.04
55990;BME280;41875;55.806;38.082;2022-11-15T08:03:18;99706.50;;;2.22;40.50
55990;BME280;41875;55.806;38.082;2022-11-15T08:06:05;99702.81;;;1.57;42.41
55990;BME280;41875;55.806;38.082;2022-11-15T08:08:53;99706.25;;;2.12;41.29
55990;BME280;41875;55.806;38.082;2022-11-15T08:11:40;99693.19;;;2.92;39.96
55990;BME280;41875;55.806;38.082;2022-11-15T08:14:28;99692.97;;;2.03;41.27
55990;BME280;41875;55.806;38.082;2022-11-15T08:17:18;99691.34;;;1.87;41.31
55990;BME280;41875;55.806;38.082;2022-11-15T08:20:06;99703.41;;;2.03;41.33
55990;BME280;41875;55.806;38.082;2022-11-15T08:22:53;99693.88;;;1.89;41.45
55990;BME280;41875;55.806;38.082;2022-11-15T08:25:42;99698.63;;;1.82;41.91
55990;BME280;41875;55.806;38.082;2022-11-15T08:28:29;99692.88;;;2.17;41.07
55990;BME280;41875;55.806;38.082;2022-11-15T08:31:18;99704.97;;;2.05;41.20
55990;BME280;41875;55.806;38.082;2022-11-15T08:34:06;99697.19;;;1.91;41.88
55990;BME280;41875;55.806;38.082;2022-11-15T08:36:54;99691.06;;;2.45;40.46
55990;BME280;41875;55.806;38.082;2022-11-15T08:39:40;99680.63;;;2.71;40.17
55990;BME280;41875;55.806;38.082;2022-11-15T08:42:32;99669.09;;;2.99;39.30
55990;BME280;41875;55.806;38.082;2022-11-15T08:45:22;99668.34;;;2.33;40.51
55990;BME280;41875;55.806;38.082;2022-11-15T08:48:10;99663.09;;;2.20;41.08
55990;BME280;41875;55.806;38.082;2022-11-15T08:51:00;99653.19;;;2.51;40.88
55990;BME280;41875;55.806;38.082;2022-11-15T08:55:16;99653.31;;;2.62;40.59
55990;BME280;41875;55.806;38.082;2022-11-15T08:58:10;99652.75;;;2.18;41.59
55990;BME280;41875;55.806;38.082;2022-11-15T09:00:57;99653.53;;;2.33;41.49
55990;BME280;41875;55.806;38.082;2022-11-15T09:03:44;99652.56;;;2.21;41.78
55990;BME280;41875;55.806;38.082;2022-11-15T09:06:32;99642.72;;;3.15;39.79
55990;BME280;41875;55.806;38.082;2022-11-15T09:13:45;99643.84;;;3.48;38.46
55990;BME280;41875;55.806;38.082;2022-11-15T09:16:32;99640.13;;;3.64;38.32
55990;BME280;41875;55.806;38.082;2022-11-15T09:19:20;99647.97;;;2.89;39.93
55990;BME280;41875;55.806;38.082;2022-11-15T09:22:07;99640.09;;;3.15;39.66
55990;BME280;41875;55.806;38.082;2022-11-15T09:24:55;99635.72;;;3.40;38.96
55990;BME280;41875;55.806;38.082;2022-11-15T09:27:42;99636.00;;;3.11;39.67
55990;BME280;41875;55.806;38.082;2022-11-15T09:30:31;99638.50;;;3.13;39.91
55990;BME280;41875;55.806;38.082;2022-11-15T09:33:18;99635.47;;;3.06;39.44
55990;BME280;41875;55.806;38.082;2022-11-15T09:36:07;99637.94;;;2.83;40.07
55990;BME280;41875;55.806;38.082;2022-11-15T09:38:54;99644.72;;;2.21;40.76
55990;BME280;41875;55.806;38.082;2022-11-15T09:42:06;99639.28;;;2.24;41.49
55990;BME280;41875;55.806;38.082;2022-11-15T09:45:09;99636.97;;;2.97;40.43
55990;BME280;41875;55.806;38.082;2022-11-15T09:48:29;99628.63;;;2.92;40.04
55990;BME280;41875;55.806;38.082;2022-11-15T09:51:28;99625.75;;;2.95;40.30
55990;BME280;41875;55.806;38.082;2022-11-15T09:54:05;99618.72;;;4.06;38.04
55990;BME280;41875;55.806;38.082;2022-11-15T09:57:04;99620.44;;;3.58;38.78
55990;BME280;41875;55.806;38.082;2022-11-15T09:59:51;99607.81;;;3.15;39.57
55990;BME280;41875;55.806;38.082;2022-11-15T10:02:37;99600.16;;;3.73;38.93
55990;BME280;41875;55.806;38.082;2022-11-15T10:05:11;99615.94;;;2.99;39.79
55990;BME280;41875;55.806;38.082;2022-11-15T10:07:48;99597.00;;;3.57;38.92
55990;BME280;41875;55.806;38.082;2022-11-15T10:10:24;99592.34;;;3.36;39.10
55990;BME280;41875;55.806;38.082;2022-11-15T10:12:55;99591.34;;;3.26;39.57
55990;BME280;41875;55.806;38.082;2022-11-15T10:15:24;99590.75;;;2.72;40.36
55990;BME280;41875;55.806;38.082;2022-11-15T10:18:06;99582.34;;;3.54;38.81
55990;BME280;41875;55.806;38.082;2022-11-15T10:20:46;99582.59;;;3.87;38.40
55990;BME280;41875;55.806;38.082;2022-11-15T10:24:01;99578.72;;;2.82;40.08
55990;BME280;41875;55.806;38.082;2022-11-15T10:26:29;99575.25;;;3.19;39.78
55990;BME280;41875;55.806;38.082;2022-11-15T10:28:58;99562.22;;;3.55;39.40
55990;BME280;41875;55.806;38.082;2022-11-15T10:31:28;99559.25;;;3.59;38.86
55990;BME280;41875;55.806;38.082;2022-11-15T10:34:09;99563.22;;;3.16;39.73
55990;BME280;41875;55.806;38.082;2022-11-15T10:36:44;99565.81;;;2.92;40.21
55990;BME280;41875;55.806;38.082;2022-11-15T10:39:16;99555.47;;;3.15;39.77
55990;BME280;41875;55.806;38.082;2022-11-15T10:42:15;99559.25;;;3.11;40.08
55990;BME280;41875;55.806;38.082;2022-11-15T10:44:45;99552.25;;;3.35;39.50
55990;BME280;41875;55.806;38.082;2022-11-15T10:47:23;99548.69;;;4.19;39.06
55990;BME280;41875;55.806;38.082;2022-11-15T10:50:00;99543.81;;;4.15;37.94
55990;BME280;41875;55.806;38.082;2022-11-15T10:52:33;99544.56;;;2.84;40.07
55990;BME280;41875;55.806;38.082;2022-11-15T10:55:12;99550.06;;;3.05;40.12
55990;BME280;41875;55.806;38.082;2022-11-15T10:57:50;99550.06;;;3.05;40.08
55990;BME280;41875;55.806;38.082;2022-11-15T11:00:29;99530.16;;;3.40;39.33
55990;BME280;41875;55.806;38.082;2022-11-15T11:02:59;99538.22;;;3.37;39.50
55990;BME280;41875;55.806;38.082;2022-11-15T11:05:30;99539.44;;;3.44;39.84
55990;BME280;41875;55.806;38.082;2022-11-15T11:08:22;99540.00;;;3.36;39.69
55990;BME280;41875;55.806;38.082;2022-11-15T11:10:56;99526.44;;;2.94;40.74
55990;BME280;41875;55.806;38.082;2022-11-15T11:13:30;99524.28;;;3.12;40.35
55990;BME280;41875;55.806;38.082;2022-11-15T11:18:57;99522.94;;;3.06;40.42
55990;BME280;41875;55.806;38.082;2022-11-15T11:21:40;99518.56;;;3.07;40.40
55990;BME280;41875;55.806;38.082;2022-11-15T11:24:17;99512.31;;;2.59;40.92
55990;BME280;41875;55.806;38.082;2022-11-15T11:27:02;99508.13;;;3.42;39.70
55990;BME280;41875;55.806;38.082;2022-11-15T11:29:44;99502.47;;;3.60;39.28
55990;BME280;41875;55.806;38.082;2022-11-15T11:32:31;99493.81;;;2.86;40.59
55990;BME280;41875;55.806;38.082;2022-11-15T11:35:08;99500.22;;;2.32;41.58
55990;BME280;41875;55.806;38.082;2022-11-15T11:37:44;99491.38;;;2.59;41.82
55990;BME280;41875;55.806;38.082;2022-11-15T11:40:27;99493.03;;;2.97;41.05
55990;BME280;41875;55.806;38.082;2022-11-15T11:43:03;99488.03;;;2.57;41.66
55990;BME280;41875;55.806;38.082;2022-11-15T11:45:53;99491.97;;;2.25;42.73
55990;BME280;41875;55.806;38.082;2022-11-15T11:48:39;99487.16;;;2.06;42.51
55990;BME280;41875;55.806;38.082;2022-11-15T11:51:18;99486.81;;;3.11;40.71
55990;BME280;41875;55.806;38.082;2022-11-15T11:53:49;99471.16;;;3.23;40.38
55990;BME280;41875;55.806;38.082;2022-11-15T11:56:31;99460.78;;;2.35;42.41
55990;BME280;41875;55.806;38.082;2022-11-15T11:59:07;99467.94;;;2.95;41.27
55990;BME280;41875;55.806;38.082;2022-11-15T12:01:41;99463.84;;;3.15;40.71
55990;BME280;41875;55.806;38.082;2022-11-15T12:04:14;99464.41;;;3.07;41.00
55990;BME280;41875;55.806;38.082;2022-11-15T12:06:49;99463.75;;;2.92;41.53
55990;BME280;41875;55.806;38.082;2022-11-15T12:09:23;99457.59;;;2.93;41.30
55990;BME280;41875;55.806;38.082;2022-11-15T12:12:08;99464.81;;;3.14;41.54
55990;BME280;41875;55.806;38.082;2022-11-15T12:14:44;99465.03;;;2.49;44.01
55990;BME280;41875;55.806;38.082;2022-11-15T12:17:16;99473.94;;;3.08;43.51
55990;BME280;41875;55.806;38.082;2022-11-15T12:19:46;99470.66;;;2.93;44.28
55990;BME280;41875;55.806;38.082;2022-11-15T12:22:19;99457.16;;;2.12;46.27
55990;BME280;41875;55.806;38.082;2022-11-15T12:24:51;99468.03;;;1.67;47.31
55990;BME280;41875;55.806;38.082;2022-11-15T12:27:29;99465.91;;;1.33;48.62
55990;BME280;41875;55.806;38.082;2022-11-15T12:30:04;99460.31;;;1.91;47.81
55990;BME280;41875;55.806;38.082;2022-11-15T12:32:38;99452.31;;;2.44;45.50
55990;BME280;41875;55.806;38.082;2022-11-15T12:35:23;99459.38;;;1.79;47.10
55990;BME280;41875;55.806;38.082;2022-11-15T12:37:55;99465.66;;;1.24;48.67
55990;BME280;41875;55.806;38.082;2022-11-15T12:40:33;99459.66;;;1.49;48.48
55990;BME280;41875;55.806;38.082;2022-11-15T12:46:04;99464.78;;;1.50;49.43
55990;BME280;41875;55.806;38.082;2022-11-15T12:48:53;99460.31;;;1.65;49.65
55990;BME280;41875;55.806;38.082;2022-11-15T12:54:55;99450.78;;;2.29;48.66
55990;BME280;41875;55.806;38.082;2022-11-15T12:57:38;99441.63;;;1.85;50.11
55990;BME280;41875;55.806;38.082;2022-11-15T13:03:27;99436.25;;;1.34;52.77
55990;BME280;41875;55.806;38.082;2022-11-15T13:06:07;99434.97;;;1.27;53.60
55990;BME280;41875;55.806;38.082;2022-11-15T13:08:48;99428.22;;;0.70;55.32
55990;BME280;41875;55.806;38.082;2022-11-15T13:11:46;99436.97;;;0.41;57.70
55990;BME280;41875;55.806;38.082;2022-11-15T13:17:33;99424.50;;;0.74;56.44
55990;BME280;41875;55.806;38.082;2022-11-15T13:20:19;99419.28;;;1.01;56.46
55990;BME280;41875;55.806;38.082;2022-11-15T13:22:49;99415.81;;;1.01;56.73
55990;BME280;41875;55.806;38.082;2022-11-15T13:26:08;99418.63;;;0.43;58.53
55990;BME280;41875;55.806;38.082;2022-11-15T13:28:42;99408.00;;;1.01;56.25
55990;BME280;41875;55.806;38.082;2022-11-15T13:31:36;99415.00;;;1.00;57.03
55990;BME280;41875;55.806;38.082;2022-11-15T13:34:19;99419.47;;;0.71;58.45
55990;BME280;41875;55.806;38.082;2022-11-15T13:37:30;99411.53;;;1.79;55.20
55990;BME280;41875;55.806;38.082;2022-11-15T13:40:17;99409.31;;;1.60;55.29
55990;BME280;41875;55.806;38.082;2022-11-15T13:42:47;99398.06;;;1.72;55.09
55990;BME280;41875;55.806;38.082;2022-11-15T13:45:17;99410.06;;;1.62;55.69
55990;BME280;41875;55.806;38.082;2022-11-15T13:47:51;99409.44;;;1.58;55.96
55990;BME280;41875;55.806;38.082;2022-11-15T13:50:26;99401.81;;;1.55;56.86
55990;BME280;41875;55.806;38.082;2022-11-15T13:52:59;99402.63;;;1.43;57.32
55990;BME280;41875;55.806;38.082;2022-11-15T13:55:32;99390.09;;;1.61;56.19
55990;BME280;41875;55.806;38.082;2022-11-15T13:58:03;99393.88;;;1.70;56.10
55990;BME280;41875;55.806;38.082;2022-11-15T14:00:38;99382.91;;;1.51;56.60
55990;BME280;41875;55.806;38.082;2022-11-15T14:03:14;99383.41;;;1.70;56.18
55990;BME280;41875;55.806;38.082;2022-11-15T14:06:04;99387.19;;;1.52;57.10
55990;BME280;41875;55.806;38.082;2022-11-15T14:08:41;99382.38;;;1.33;57.65
55990;BME280;41875;55.806;38.082;2022-11-15T14:11:16;99385.53;;;1.64;57.26
55990;BME280;41875;55.806;38.082;2022-11-15T14:14:03;99381.78;;;1.56;57.27
55990;BME280;41875;55.806;38.082;2022-11-15T14:16:34;99381.88;;;1.67;56.42
55990;BME280;41875;55.806;38.082;2022-11-15T14:19:05;99384.78;;;1.62;56.70
55990;BME280;41875;55.806;38.082;2022-11-15T14:21:33;99383.84;;;1.63;57.10
55990;BME280;41875;55.806;38.082;2022-11-15T14:24:17;99387.09;;;1.67;57.05
55990;BME280;41875;55.806;38.082;2022-11-15T14:26:46;99381.53;;;1.72;56.92
55990;BME280;41875;55.806;38.082;2022-11-15T14:29:22;99367.03;;;1.55;57.31
55990;BME280;41875;55.806;38.082;2022-11-15T14:31:51;99366.50;;;1.75;56.78
55990;BME280;41875;55.806;38.082;2022-11-15T14:34:19;99362.47;;;2.08;55.36
55990;BME280;41875;55.806;38.082;2022-11-15T14:36:49;99364.63;;;1.64;56.66
55990;BME280;41875;55.806;38.082;2022-11-15T14:39:19;99357.94;;;1.60;56.88
55990;BME280;41875;55.806;38.082;2022-11-15T14:41:48;99358.88;;;1.72;56.07
55990;BME280;41875;55.806;38.082;2022-11-15T14:44:16;99356.56;;;1.67;57.03
55990;BME280;41875;55.806;38.082;2022-11-15T14:46:47;99358.69;;;1.62;56.95
55990;BME280;41875;55.806;38.082;2022-11-15T14:49:15;99353.47;;;1.62;57.33
55990;BME280;41875;55.806;38.082;2022-11-15T14:51:44;99352.53;;;1.63;56.43
55990;BME280;41875;55.806;38.082;2022-11-15T14:54:13;99348.84;;;1.53;57.64
55990;BME280;41875;55.806;38.082;2022-11-15T14:56:43;99346.19;;;1.92;55.30
55990;BME280;41875;55.806;38.082;2022-11-15T14:59:11;99339.31;;;1.91;56.10
55990;BME280;41875;55.806;38.082;2022-11-15T15:01:40;99340.41;;;1.49;56.61
55990;BME280;41875;55.806;38.082;2022-11-15T15:04:09;99345.44;;;1.65;56.59
55990;BME280;41875;55.806;38.082;2022-11-15T15:06:39;99334.56;;;1.46;56.32